sensor_id;sensor_type;location;lat;lon;timestamp;noise_LAeq;noise_LA_min;noise_LA_max;noise_LA01;noise_LA95
72690;Laerm;61053;52.166;4.506;2022-08-19T00:00:29;44.43;40.79;59.31;;
72690;Laerm;61053;52.166;4.506;2022-08-19T00:02:54;48.87;40.23;65.55;;
72690;Laerm;61053;52.166;4.506;2022-08-19T00:05:21;48.23;42.30;61.68;;
72690;Laerm;61053;52.166;4.506;2022-08-19T00:07:49;50.44;42.35;69.73;;
72690;Laerm;61053;52.166;4.506;2022-08-19T00:10:17;50.34;40.89;66.86;;
72690;Laerm;61053;52.166;4.506;2022-08-19T00:12:43;52.92;42.82;68.99;;
72690;Laerm;61053;52.166;4.506;2022-08-19T00:15:12;51.46;40.63;68.97;;
72690;Laerm;61053;52.166;4.506;2022-08-19T00:17:41;44.53;40.63;49.35;;
72690;Laerm;61053;52.166;4.506;2022-08-19T00:20:11;44.26;40.53;47.72;;
72690;Laerm;61053;52.166;4.506;2022-08-19T00:22:38;46.59;39.70;61.19;;
72690;Laerm;61053;52.166;4.506;2022-08-19T00:25:07;44.25;41.14;50.58;;
72690;Laerm;61053;52.166;4.506;2022-08-19T00:27:33;50.10;42.09;65.69;;
72690;Laerm;61053;52.166;4.506;2022-08-19T00:30:00;44.40;41.89;49.38;;
72690;Laerm;61053;52.166;4.506;2022-08-19T00:32:29;52.13;42.29;70.32;;
72690;Laerm;61053;52.166;4.506;2022-08-19T00:34:56;46.80;40.23;62.44;;
72690;Laerm;61053;52.166;4.506;2022-08-19T00:37:24;51.38;41.61;69.28;;
72690;Laerm;61053;52.166;4.506;2022-08-19T00:39:52;51.74;40.03;68.03;;
72690;Laerm;61053;52.166;4.506;2022-08-19T00:42:21;53.98;42.42;69.01;;
72690;Laerm;61053;52.166;4.506;2022-08-19T00:44:47;46.51;42.16;55.51;;
72690;Laerm;61053;52.166;4.506;2022-08-19T00:47:13;52.49;41.89;67.36;;
72690;Laerm;61053;52.166;4.506;2022-08-19T00:49:47;44.18;39.21;47.93;;
72690;Laerm;61053;52.166;4.506;2022-08-19T00:52:49;47.50;40.13;65.55;;
72690;Laerm;61053;52.166;4.506;2022-08-19T00:55:21;49.90;41.96;66.71;;
72690;Laerm;61053;52.166;4.506;2022-08-19T00:57:55;44.76;40.62;50.68;;
72690;Laerm;61053;52.166;4.506;2022-08-19T01:00:24;49.27;41.94;63.78;;
72690;Laerm;61053;52.166;4.506;2022-08-19T01:02:52;46.27;41.46;61.18;;
72690;Laerm;61053;52.166;4.506;2022-08-19T01:05:26;44.26;40.98;48.21;;
72690;Laerm;61053;52.166;4.506;2022-08-19T01:07:54;46.50;40.53;61.08;;
72690;Laerm;61053;52.166;4.506;2022-08-19T01:10:26;50.00;41.46;65.87;;
72690;Laerm;61053;52.166;4.506;2022-08-19T01:12:54;44.41;41.30;49.00;;
72690;Laerm;61053;52.166;4.506;2022-08-19T01:15:29;47.16;39.58;63.09;;
72690;Laerm;61053;52.166;4.506;2022-08-19T01:17:56;44.53;40.62;48.21;;
72690;Laerm;61053;52.166;4.506;2022-08-19T01:20:25;44.65;40.43;47.84;;
72690;Laerm;61053;52.166;4.506;2022-08-19T01:22:56;44.41;40.23;47.57;;
72690;Laerm;61053;52.166;4.506;2022-08-19T01:25:29;44.32;42.41;47.96;;
72690;Laerm;61053;52.166;4.506;2022-08-19T01:27:56;48.15;40.33;64.15;;
72690;Laerm;61053;52.166;4.506;2022-08-19T01:30:33;46.60;41.22;61.19;;
72690;Laerm;61053;52.166;4.506;2022-08-19T01:32:59;45.70;42.29;57.33;;
72690;Laerm;61053;52.166;4.506;2022-08-19T01:35:28;56.14;40.33;90.08;;
72690;Laerm;61053;52.166;4.506;2022-08-19T01:38:05;50.70;40.43;66.97;;
72690;Laerm;61053;52.166;4.506;2022-08-19T01:40:39;50.07;40.43;68.95;;
72690;Laerm;61053;52.166;4.506;2022-08-19T01:43:05;49.62;41.19;68.26;;
72690;Laerm;61053;52.166;4.506;2022-08-19T01:45:34;44.50;40.13;57.42;;
72690;Laerm;61053;52.166;4.506;2022-08-19T01:48:01;58.76;41.96;77.41;;
72690;Laerm;61053;52.166;4.506;2022-08-19T01:50:28;45.97;41.30;59.17;;
72690;Laerm;61053;52.166;4.506;2022-08-19T01:52:53;44.61;41.82;50.03;;
72690;Laerm;61053;52.166;4.506;2022-08-19T01:55:23;56.31;42.29;78.73;;
72690;Laerm;61053;52.166;4.506;2022-08-19T01:57:55;44.17;42.09;47.54;;
72690;Laerm;61053;52.166;4.506;2022-08-19T02:00:25;48.45;41.53;65.30;;
72690;Laerm;61053;52.166;4.506;2022-08-19T02:05:19;43.83;41.22;48.26;;
72690;Laerm;61053;52.166;4.506;2022-08-19T02:07:47;43.86;41.38;47.65;;
72690;Laerm;61053;52.166;4.506;2022-08-19T02:10:22;44.00;40.89;48.26;;
72690;Laerm;61053;52.166;4.506;2022-08-19T02:12:49;45.78;41.96;61.26;;
72690;Laerm;61053;52.166;4.506;2022-08-19T02:15:17;60.18;42.03;78.48;;
72690;Laerm;61053;52.166;4.506;2022-08-19T02:17:47;48.91;42.29;66.56;;
72690;Laerm;61053;52.166;4.506;2022-08-19T02:20:14;51.42;41.75;69.04;;
72690;Laerm;61053;52.166;4.506;2022-08-19T02:25:12;51.48;42.82;69.65;;
72690;Laerm;61053;52.166;4.506;2022-08-19T02:27:39;45.19;42.53;55.18;;
72690;Laerm;61053;52.166;4.506;2022-08-19T02:30:16;50.18;42.22;69.24;;
72690;Laerm;61053;52.166;4.506;2022-08-19T02:32:43;44.71;42.82;49.19;;
72690;Laerm;61053;52.166;4.506;2022-08-19T02:35:09;50.72;42.53;68.90;;
72690;Laerm;61053;52.166;4.506;2022-08-19T02:37:36;49.28;42.71;64.51;;
72690;Laerm;61053;52.166;4.506;2022-08-19T02:40:29;58.80;42.71;79.24;;
72690;Laerm;61053;52.166;4.506;2022-08-19T02:42:55;44.69;42.71;53.22;;
72690;Laerm;61053;52.166;4.506;2022-08-19T02:45:22;44.64;42.88;48.57;;
72690;Laerm;61053;52.166;4.506;2022-08-19T02:47:48;51.14;42.88;69.61;;
72690;Laerm;61053;52.166;4.506;2022-08-19T02:50:13;48.69;42.71;64.45;;
72690;Laerm;61053;52.166;4.506;2022-08-19T02:52:40;47.15;42.59;62.92;;
72690;Laerm;61053;52.166;4.506;2022-08-19T02:55:06;46.47;42.47;57.90;;
72690;Laerm;61053;52.166;4.506;2022-08-19T02:57:32;49.78;42.59;64.03;;
72690;Laerm;61053;52.166;4.506;2022-08-19T03:02:24;44.57;40.23;51.19;;
72690;Laerm;61053;52.166;4.506;2022-08-19T03:04:50;51.62;42.93;68.90;;
72690;Laerm;61053;52.166;4.506;2022-08-19T03:07:18;46.81;40.98;63.55;;
72690;Laerm;61053;52.166;4.506;2022-08-19T03:09:43;44.79;42.47;50.15;;
72690;Laerm;61053;52.166;4.506;2022-08-19T03:12:10;46.08;42.59;58.87;;
72690;Laerm;61053;52.166;4.506;2022-08-19T03:14:36;50.60;42.59;64.34;;
72690;Laerm;61053;52.166;4.506;2022-08-19T03:17:04;44.64;42.71;48.26;;
72690;Laerm;61053;52.166;4.506;2022-08-19T03:19:30;45.01;43.19;49.03;;
72690;Laerm;61053;52.166;4.506;2022-08-19T03:22:00;49.83;42.93;67.27;;
72690;Laerm;61053;52.166;4.506;2022-08-19T03:24:25;54.74;42.65;68.66;;
72690;Laerm;61053;52.166;4.506;2022-08-19T03:26:56;54.50;42.76;75.04;;
72690;Laerm;61053;52.166;4.506;2022-08-19T03:29:29;55.11;43.58;71.66;;
72690;Laerm;61053;52.166;4.506;2022-08-19T03:32:00;46.69;42.88;59.71;;
72690;Laerm;61053;52.166;4.506;2022-08-19T03:36:58;49.38;42.82;63.11;;
72690;Laerm;61053;52.166;4.506;2022-08-19T03:39:25;54.16;43.39;69.53;;
72690;Laerm;61053;52.166;4.506;2022-08-19T03:41:54;52.97;43.44;67.13;;
72690;Laerm;61053;52.166;4.506;2022-08-19T03:44:25;54.75;43.29;72.15;;
72690;Laerm;61053;52.166;4.506;2022-08-19T03:46:58;55.15;43.09;73.38;;
72690;Laerm;61053;52.166;4.506;2022-08-19T03:49:30;48.71;43.14;63.87;;
72690;Laerm;61053;52.166;4.506;2022-08-19T03:51:58;54.54;43.39;69.91;;
72690;Laerm;61053;52.166;4.506;2022-08-19T03:54:31;50.03;43.39;62.76;;
72690;Laerm;61053;52.166;4.506;2022-08-19T03:56:57;56.03;43.29;72.39;;
72690;Laerm;61053;52.166;4.506;2022-08-19T03:59:32;53.01;43.24;66.61;;
72690;Laerm;61053;52.166;4.506;2022-08-19T04:02:10;51.78;43.77;67.54;;
72690;Laerm;61053;52.166;4.506;2022-08-19T04:04:41;55.22;43.24;78.16;;
72690;Laerm;61053;52.166;4.506;2022-08-19T04:07:09;54.71;44.03;68.87;;
72690;Laerm;61053;52.166;4.506;2022-08-19T04:09:38;55.96;43.44;69.00;;
72690;Laerm;61053;52.166;4.506;2022-08-19T04:12:05;56.51;43.77;69.41;;
72690;Laerm;61053;52.166;4.506;2022-08-19T04:14:31;58.00;44.19;70.46;;
72690;Laerm;61053;52.166;4.506;2022-08-19T04:16:59;54.51;44.39;69.74;;
72690;Laerm;61053;52.166;4.506;2022-08-19T04:19:26;55.15;43.68;67.44;;
72690;Laerm;61053;52.166;4.506;2022-08-19T04:21:55;54.64;44.35;69.50;;
72690;Laerm;61053;52.166;4.506;2022-08-19T04:24:22;58.91;44.65;75.09;;
72690;Laerm;61053;52.166;4.506;2022-08-19T04:26:48;53.72;44.27;66.85;;
72690;Laerm;61053;52.166;4.506;2022-08-19T04:29:19;60.04;43.90;74.51;;
72690;Laerm;61053;52.166;4.506;2022-08-19T04:31:48;64.94;42.47;86.14;;
72690;Laerm;61053;52.166;4.506;2022-08-19T04:34:17;57.97;43.39;70.98;;
72690;Laerm;61053;52.166;4.506;2022-08-19T04:36:45;62.92;43.49;80.06;;
72690;Laerm;61053;52.166;4.506;2022-08-19T04:39:15;56.62;44.15;70.72;;
72690;Laerm;61053;52.166;4.506;2022-08-19T04:41:42;58.91;44.15;75.76;;
72690;Laerm;61053;52.166;4.506;2022-08-19T04:44:27;56.99;45.01;70.20;;
72690;Laerm;61053;52.166;4.506;2022-08-19T04:46:56;57.16;44.47;69.06;;
72690;Laerm;61053;52.166;4.506;2022-08-19T04:49:23;59.77;44.31;71.92;;
72690;Laerm;61053;52.166;4.506;2022-08-19T04:51:52;55.98;43.58;67.72;;
72690;Laerm;61053;52.166;4.506;2022-08-19T04:54:20;60.08;43.49;76.07;;
72690;Laerm;61053;52.166;4.506;2022-08-19T04:56:50;57.96;44.35;69.79;;
72690;Laerm;61053;52.166;4.506;2022-08-19T04:59:18;55.79;41.82;67.83;;
72690;Laerm;61053;52.166;4.506;2022-08-19T05:01:45;62.87;43.63;81.34;;
72690;Laerm;61053;52.166;4.506;2022-08-19T05:04:18;55.83;41.68;72.20;;
72690;Laerm;61053;52.166;4.506;2022-08-19T05:06:45;57.34;44.27;71.57;;
72690;Laerm;61053;52.166;4.506;2022-08-19T05:09:12;58.22;43.54;73.02;;
72690;Laerm;61053;52.166;4.506;2022-08-19T05:14:05;61.68;43.68;78.03;;
72690;Laerm;61053;52.166;4.506;2022-08-19T05:16:31;58.68;44.23;68.90;;
72690;Laerm;61053;52.166;4.506;2022-08-19T05:18:56;58.95;41.38;74.37;;
72690;Laerm;61053;52.166;4.506;2022-08-19T05:21:42;62.07;44.58;79.48;;
72690;Laerm;61053;52.166;4.506;2022-08-19T05:24:27;61.54;44.35;80.38;;
72690;Laerm;61053;52.166;4.506;2022-08-19T05:26:55;57.13;44.58;69.22;;
72690;Laerm;61053;52.166;4.506;2022-08-19T05:29:27;60.23;44.15;74.96;;
72690;Laerm;61053;52.166;4.506;2022-08-19T05:31:54;64.35;44.27;80.73;;
72690;Laerm;61053;52.166;4.506;2022-08-19T05:34:23;61.14;45.43;77.25;;
72690;Laerm;61053;52.166;4.506;2022-08-19T05:36:58;57.93;44.15;69.18;;
72690;Laerm;61053;52.166;4.506;2022-08-19T05:39:31;60.55;45.39;74.58;;
72690;Laerm;61053;52.166;4.506;2022-08-19T05:42:03;56.79;44.31;69.22;;
72690;Laerm;61053;52.166;4.506;2022-08-19T05:44:32;61.57;44.19;79.70;;
72690;Laerm;61053;52.166;4.506;2022-08-19T05:47:02;59.88;44.87;72.41;;
72690;Laerm;61053;52.166;4.506;2022-08-19T05:49:29;72.58;47.81;89.19;;
72690;Laerm;61053;52.166;4.506;2022-08-19T05:51:55;60.59;44.51;76.34;;
72690;Laerm;61053;52.166;4.506;2022-08-19T05:54:23;59.21;45.14;71.01;;
72690;Laerm;61053;52.166;4.506;2022-08-19T05:56:50;59.90;45.14;69.12;;
72690;Laerm;61053;52.166;4.506;2022-08-19T05:59:17;59.81;45.30;76.87;;
72690;Laerm;61053;52.166;4.506;2022-08-19T06:01:46;59.25;46.20;72.19;;
72690;Laerm;61053;52.166;4.506;2022-08-19T06:04:12;57.65;44.65;72.51;;
72690;Laerm;61053;52.166;4.506;2022-08-19T06:06:42;58.55;44.35;68.19;;
72690;Laerm;61053;52.166;4.506;2022-08-19T06:09:08;59.38;45.69;74.41;;
72690;Laerm;61053;52.166;4.506;2022-08-19T06:11:42;62.12;45.42;77.04;;
72690;Laerm;61053;52.166;4.506;2022-08-19T06:14:14;67.34;47.22;86.32;;
72690;Laerm;61053;52.166;4.506;2022-08-19T06:16:42;59.07;44.07;74.93;;
72690;Laerm;61053;52.166;4.506;2022-08-19T06:19:13;58.57;46.13;69.62;;
72690;Laerm;61053;52.166;4.506;2022-08-19T06:21:41;59.77;45.89;72.51;;
72690;Laerm;61053;52.166;4.506;2022-08-19T06:24:10;58.47;44.11;68.84;;
72690;Laerm;61053;52.166;4.506;2022-08-19T06:26:41;59.57;45.17;71.25;;
72690;Laerm;61053;52.166;4.506;2022-08-19T06:29:12;61.89;44.47;73.81;;
72690;Laerm;61053;52.166;4.506;2022-08-19T06:31:46;63.65;45.51;86.95;;
72690;Laerm;61053;52.166;4.506;2022-08-19T06:34:15;59.19;44.15;70.97;;
72690;Laerm;61053;52.166;4.506;2022-08-19T06:36:49;67.13;45.43;86.53;;
72690;Laerm;61053;52.166;4.506;2022-08-19T06:39:21;60.08;43.72;73.67;;
72690;Laerm;61053;52.166;4.506;2022-08-19T06:41:53;59.79;44.58;70.83;;
72690;Laerm;61053;52.166;4.506;2022-08-19T06:44:21;62.47;45.33;75.86;;
72690;Laerm;61053;52.166;4.506;2022-08-19T06:46:47;60.61;45.04;71.87;;
72690;Laerm;61053;52.166;4.506;2022-08-19T06:49:15;58.04;44.15;72.51;;
72690;Laerm;61053;52.166;4.506;2022-08-19T06:51:45;63.48;45.72;80.05;;
72690;Laerm;61053;52.166;4.506;2022-08-19T06:54:13;58.84;44.54;70.05;;
72690;Laerm;61053;52.166;4.506;2022-08-19T06:56:40;60.97;47.57;73.29;;
72690;Laerm;61053;52.166;4.506;2022-08-19T06:59:11;58.68;44.97;72.73;;
72690;Laerm;61053;52.166;4.506;2022-08-19T07:01:41;63.78;46.30;75.80;;
72690;Laerm;61053;52.166;4.506;2022-08-19T07:04:08;67.49;43.58;82.71;;
72690;Laerm;61053;52.166;4.506;2022-08-19T07:06:35;61.21;45.01;78.99;;
72690;Laerm;61053;52.166;4.506;2022-08-19T07:09:07;62.04;44.94;80.80;;
72690;Laerm;61053;52.166;4.506;2022-08-19T07:11:32;58.50;44.11;67.30;;
72690;Laerm;61053;52.166;4.506;2022-08-19T07:14:00;58.91;43.99;71.78;;
72690;Laerm;61053;52.166;4.506;2022-08-19T07:16:26;56.43;43.19;70.49;;
72690;Laerm;61053;52.166;4.506;2022-08-19T07:18:55;57.58;43.94;66.81;;
72690;Laerm;61053;52.166;4.506;2022-08-19T07:21:27;57.04;42.41;67.77;;
72690;Laerm;61053;52.166;4.506;2022-08-19T07:23:55;59.69;45.57;72.43;;
72690;Laerm;61053;52.166;4.506;2022-08-19T07:26:27;57.98;44.80;72.66;;
72690;Laerm;61053;52.166;4.506;2022-08-19T07:28:54;56.62;43.68;70.95;;
72690;Laerm;61053;52.166;4.506;2022-08-19T07:31:23;61.49;44.19;78.35;;
72690;Laerm;61053;52.166;4.506;2022-08-19T07:33:53;57.97;43.58;67.76;;
72690;Laerm;61053;52.166;4.506;2022-08-19T07:36:24;56.81;43.86;67.02;;
72690;Laerm;61053;52.166;4.506;2022-08-19T07:38:51;60.44;44.43;73.65;;
72690;Laerm;61053;52.166;4.506;2022-08-19T07:41:22;59.68;43.77;73.85;;
72690;Laerm;61053;52.166;4.506;2022-08-19T07:43:49;60.16;45.57;75.01;;
72690;Laerm;61053;52.166;4.506;2022-08-19T07:46:16;59.15;43.81;69.80;;
72690;Laerm;61053;52.166;4.506;2022-08-19T07:48:43;61.02;45.20;77.43;;
72690;Laerm;61053;52.166;4.506;2022-08-19T07:51:14;61.29;47.18;71.02;;
72690;Laerm;61053;52.166;4.506;2022-08-19T07:53:40;59.47;45.04;76.84;;
72690;Laerm;61053;52.166;4.506;2022-08-19T07:56:06;59.11;44.83;71.74;;
72690;Laerm;61053;52.166;4.506;2022-08-19T07:58:37;58.35;43.09;70.79;;
72690;Laerm;61053;52.166;4.506;2022-08-19T08:01:06;64.18;45.91;77.80;;
72690;Laerm;61053;52.166;4.506;2022-08-19T08:06:20;60.65;44.04;76.27;;
72690;Laerm;61053;52.166;4.506;2022-08-19T08:09:05;57.09;42.65;70.53;;
72690;Laerm;61053;52.166;4.506;2022-08-19T08:11:50;63.60;47.75;79.90;;
72690;Laerm;61053;52.166;4.506;2022-08-19T08:14:21;61.30;44.90;74.04;;
72690;Laerm;61053;52.166;4.506;2022-08-19T08:16:49;68.50;45.42;86.64;;
72690;Laerm;61053;52.166;4.506;2022-08-19T08:19:18;59.48;42.71;70.15;;
72690;Laerm;61053;52.166;4.506;2022-08-19T08:21:45;62.19;45.89;74.59;;
72690;Laerm;61053;52.166;4.506;2022-08-19T08:24:11;57.11;44.65;68.21;;
72690;Laerm;61053;52.166;4.506;2022-08-19T08:26:38;60.00;46.18;74.59;;
72690;Laerm;61053;52.166;4.506;2022-08-19T08:29:03;58.05;44.94;68.65;;
72690;Laerm;61053;52.166;4.506;2022-08-19T08:31:29;62.79;45.94;79.05;;
72690;Laerm;61053;52.166;4.506;2022-08-19T08:33:54;63.94;46.33;78.63;;
72690;Laerm;61053;52.166;4.506;2022-08-19T08:36:20;63.95;46.23;83.89;;
72690;Laerm;61053;52.166;4.506;2022-08-19T08:38:46;62.41;47.50;81.36;;
72690;Laerm;61053;52.166;4.506;2022-08-19T08:45:02;64.45;46.02;83.91;;
72690;Laerm;61053;52.166;4.506;2022-08-19T08:47:14;59.39;44.69;70.19;;
72690;Laerm;61053;52.166;4.506;2022-08-19T08:49:56;60.78;45.33;74.57;;
72690;Laerm;61053;52.166;4.506;2022-08-19T08:52:28;57.67;44.49;70.51;;
72690;Laerm;61053;52.166;4.506;2022-08-19T08:54:59;61.26;44.39;75.95;;
72690;Laerm;61053;52.166;4.506;2022-08-19T08:57:36;60.09;45.04;73.84;;
72690;Laerm;61053;52.166;4.506;2022-08-19T09:00:12;61.96;47.76;74.74;;
72690;Laerm;61053;52.166;4.506;2022-08-19T09:02:39;57.46;45.23;71.44;;
72690;Laerm;61053;52.166;4.506;2022-08-19T09:05:05;61.10;44.62;75.31;;
72690;Laerm;61053;52.166;4.506;2022-08-19T09:07:55;62.89;44.94;80.33;;
72690;Laerm;61053;52.166;4.506;2022-08-19T09:13:42;62.57;46.45;76.48;;
72690;Laerm;61053;52.166;4.506;2022-08-19T09:16:16;64.25;49.43;83.89;;
72690;Laerm;61053;52.166;4.506;2022-08-19T09:18:51;59.68;45.30;71.44;;
72690;Laerm;61053;52.166;4.506;2022-08-19T09:21:21;62.49;45.14;76.48;;
72690;Laerm;61053;52.166;4.506;2022-08-19T09:23:48;60.18;46.20;72.21;;
72690;Laerm;61053;52.166;4.506;2022-08-19T09:26:18;60.31;46.82;70.50;;
72690;Laerm;61053;52.166;4.506;2022-08-19T09:28:49;57.39;44.69;79.27;;
72690;Laerm;61053;52.166;4.506;2022-08-19T09:31:19;61.02;45.54;71.75;;
72690;Laerm;61053;52.166;4.506;2022-08-19T09:33:47;62.14;49.83;76.06;;
72690;Laerm;61053;52.166;4.506;2022-08-19T09:36:16;63.42;46.93;75.60;;
72690;Laerm;61053;52.166;4.506;2022-08-19T09:38:42;61.07;46.25;77.84;;
72690;Laerm;61053;52.166;4.506;2022-08-19T09:41:12;60.88;45.27;74.47;;
72690;Laerm;61053;52.166;4.506;2022-08-19T09:43:41;60.63;44.90;77.38;;
72690;Laerm;61053;52.166;4.506;2022-08-19T09:46:08;55.21;43.77;69.09;;
72690;Laerm;61053;52.166;4.506;2022-08-19T09:48:39;61.03;45.89;72.91;;
72690;Laerm;61053;52.166;4.506;2022-08-19T09:51:12;63.44;48.84;76.80;;
72690;Laerm;61053;52.166;4.506;2022-08-19T09:53:46;60.21;47.88;72.48;;
72690;Laerm;61053;52.166;4.506;2022-08-19T09:56:14;60.31;45.54;75.84;;
72690;Laerm;61053;52.166;4.506;2022-08-19T09:58:40;60.98;43.90;74.75;;
72690;Laerm;61053;52.166;4.506;2022-08-19T10:01:09;74.88;45.83;95.74;;
72690;Laerm;61053;52.166;4.506;2022-08-19T10:03:36;57.92;43.63;68.94;;
72690;Laerm;61053;52.166;4.506;2022-08-19T10:06:06;62.73;45.99;76.76;;
72690;Laerm;61053;52.166;4.506;2022-08-19T10:08:35;60.47;45.45;73.77;;
72690;Laerm;61053;52.166;4.506;2022-08-19T10:11:03;64.07;48.48;77.22;;
72690;Laerm;61053;52.166;4.506;2022-08-19T10:13:31;59.79;44.58;70.65;;
72690;Laerm;61053;52.166;4.506;2022-08-19T10:16:09;59.53;44.07;70.99;;
72690;Laerm;61053;52.166;4.506;2022-08-19T10:18:36;59.07;43.89;72.76;;
72690;Laerm;61053;52.166;4.506;2022-08-19T10:23:38;63.17;50.10;79.08;;
72690;Laerm;61053;52.166;4.506;2022-08-19T10:26:06;60.03;45.83;69.09;;
72690;Laerm;61053;52.166;4.506;2022-08-19T10:28:36;59.84;46.18;72.53;;
72690;Laerm;61053;52.166;4.506;2022-08-19T10:31:13;59.46;44.62;73.22;;
72690;Laerm;61053;52.166;4.506;2022-08-19T10:33:46;63.74;48.79;80.46;;
72690;Laerm;61053;52.166;4.506;2022-08-19T10:36:20;60.37;45.39;70.43;;
72690;Laerm;61053;52.166;4.506;2022-08-19T10:38:52;64.00;47.22;85.56;;
72690;Laerm;61053;52.166;4.506;2022-08-19T10:41:21;58.85;45.30;70.24;;
72690;Laerm;61053;52.166;4.506;2022-08-19T10:44:04;62.76;48.28;78.70;;
72690;Laerm;61053;52.166;4.506;2022-08-19T10:46:31;62.22;45.45;76.87;;
72690;Laerm;61053;52.166;4.506;2022-08-19T10:48:59;61.17;47.48;73.39;;
72690;Laerm;61053;52.166;4.506;2022-08-19T10:51:25;61.43;45.75;74.97;;
72690;Laerm;61053;52.166;4.506;2022-08-19T10:54:10;62.29;46.33;78.33;;
72690;Laerm;61053;52.166;4.506;2022-08-19T10:56:36;61.48;44.80;72.12;;
72690;Laerm;61053;52.166;4.506;2022-08-19T10:59:29;60.16;47.26;71.55;;
72690;Laerm;61053;52.166;4.506;2022-08-19T11:02:01;58.37;44.51;68.65;;
72690;Laerm;61053;52.166;4.506;2022-08-19T11:04:27;60.76;44.87;74.48;;
72690;Laerm;61053;52.166;4.506;2022-08-19T11:09:23;61.51;48.81;74.31;;
72690;Laerm;61053;52.166;4.506;2022-08-19T11:11:50;61.67;47.52;71.60;;
72690;Laerm;61053;52.166;4.506;2022-08-19T11:14:20;59.41;46.38;74.17;;
72690;Laerm;61053;52.166;4.506;2022-08-19T11:16:50;67.88;50.98;83.64;;
72690;Laerm;61053;52.166;4.506;2022-08-19T11:19:16;60.86;44.83;72.19;;
72690;Laerm;61053;52.166;4.506;2022-08-19T11:21:47;58.92;45.42;68.89;;
72690;Laerm;61053;52.166;4.506;2022-08-19T11:24:20;61.29;44.65;82.83;;
72690;Laerm;61053;52.166;4.506;2022-08-19T11:26:48;64.07;47.34;82.09;;
72690;Laerm;61053;52.166;4.506;2022-08-19T11:29:18;62.58;46.82;79.67;;
72690;Laerm;61053;52.166;4.506;2022-08-19T11:31:48;60.31;45.69;71.29;;
72690;Laerm;61053;52.166;4.506;2022-08-19T11:34:20;58.66;43.68;70.13;;
72690;Laerm;61053;52.166;4.506;2022-08-19T11:36:47;60.74;44.31;71.18;;
72690;Laerm;61053;52.166;4.506;2022-08-19T11:39:17;61.78;46.25;74.37;;
72690;Laerm;61053;52.166;4.506;2022-08-19T11:41:43;60.57;46.10;69.58;;
72690;Laerm;61053;52.166;4.506;2022-08-19T11:44:09;63.70;49.38;80.11;;
72690;Laerm;61053;52.166;4.506;2022-08-19T11:46:37;60.73;44.69;81.71;;
72690;Laerm;61053;52.166;4.506;2022-08-19T11:49:05;59.79;46.84;72.60;;
72690;Laerm;61053;52.166;4.506;2022-08-19T11:51:33;60.35;45.27;77.92;;
72690;Laerm;61053;52.166;4.506;2022-08-19T11:53:59;58.73;45.65;70.96;;
72690;Laerm;61053;52.166;4.506;2022-08-19T11:56:27;59.44;44.83;74.19;;
72690;Laerm;61053;52.166;4.506;2022-08-19T11:58:54;62.60;45.80;77.97;;
72690;Laerm;61053;52.166;4.506;2022-08-19T12:01:25;62.01;49.08;74.05;;
72690;Laerm;61053;52.166;4.506;2022-08-19T12:03:53;62.46;47.61;84.75;;
72690;Laerm;61053;52.166;4.506;2022-08-19T12:06:27;62.62;49.20;84.85;;
72690;Laerm;61053;52.166;4.506;2022-08-19T12:09:12;60.48;47.02;74.14;;
72690;Laerm;61053;52.166;4.506;2022-08-19T12:11:40;61.39;48.64;72.43;;
72690;Laerm;61053;52.166;4.506;2022-08-19T12:14:10;62.43;48.48;72.69;;
72690;Laerm;61053;52.166;4.506;2022-08-19T12:16:39;62.42;45.78;79.16;;
72690;Laerm;61053;52.166;4.506;2022-08-19T12:19:06;58.28;44.80;73.85;;
72690;Laerm;61053;52.166;4.506;2022-08-19T12:21:35;59.88;44.03;69.24;;
72690;Laerm;61053;52.166;4.506;2022-08-19T12:24:04;61.03;49.75;71.87;;
72690;Laerm;61053;52.166;4.506;2022-08-19T12:26:31;60.94;47.34;72.05;;
72690;Laerm;61053;52.166;4.506;2022-08-19T12:29:00;60.05;44.19;70.41;;
72690;Laerm;61053;52.166;4.506;2022-08-19T12:31:28;61.41;46.15;72.58;;
72690;Laerm;61053;52.166;4.506;2022-08-19T12:33:54;62.58;45.27;77.03;;
72690;Laerm;61053;52.166;4.506;2022-08-19T12:36:21;58.44;45.91;67.48;;
72690;Laerm;61053;52.166;4.506;2022-08-19T12:38:48;61.52;47.02;75.35;;
72690;Laerm;61053;52.166;4.506;2022-08-19T12:41:16;60.34;47.67;70.59;;
72690;Laerm;61053;52.166;4.506;2022-08-19T12:43:44;61.95;47.24;71.64;;
72690;Laerm;61053;52.166;4.506;2022-08-19T12:46:11;59.26;48.25;68.18;;
72690;Laerm;61053;52.166;4.506;2022-08-19T12:48:39;60.88;48.88;70.64;;
72690;Laerm;61053;52.166;4.506;2022-08-19T12:51:16;59.81;47.84;71.44;;
72690;Laerm;61053;52.166;4.506;2022-08-19T12:53:46;59.43;47.26;70.13;;
72690;Laerm;61053;52.166;4.506;2022-08-19T12:56:14;63.66;46.43;75.45;;
72690;Laerm;61053;52.166;4.506;2022-08-19T12:58:41;61.11;45.65;80.04;;
72690;Laerm;61053;52.166;4.506;2022-08-19T13:01:13;61.75;47.65;74.15;;
72690;Laerm;61053;52.166;4.506;2022-08-19T13:03:42;62.04;46.95;79.80;;
72690;Laerm;61053;52.166;4.506;2022-08-19T13:06:13;61.18;46.15;71.49;;
72690;Laerm;61053;52.166;4.506;2022-08-19T13:08:40;61.50;46.76;75.34;;
72690;Laerm;61053;52.166;4.506;2022-08-19T13:13:36;61.82;49.75;70.99;;
72690;Laerm;61053;52.166;4.506;2022-08-19T13:16:02;61.76;47.36;73.64;;
72690;Laerm;61053;52.166;4.506;2022-08-19T13:18:28;61.88;45.80;74.70;;
72690;Laerm;61053;52.166;4.506;2022-08-19T13:20:54;61.39;47.63;70.50;;
72690;Laerm;61053;52.166;4.506;2022-08-19T13:23:21;60.62;44.19;70.74;;
72690;Laerm;61053;52.166;4.506;2022-08-19T13:25:57;60.96;45.27;76.78;;
72690;Laerm;61053;52.166;4.506;2022-08-19T13:28:23;64.62;47.55;78.35;;
72690;Laerm;61053;52.166;4.506;2022-08-19T13:30:48;61.47;48.95;71.91;;
72690;Laerm;61053;52.166;4.506;2022-08-19T13:33:32;61.05;47.68;73.81;;
72690;Laerm;61053;52.166;4.506;2022-08-19T13:35:59;58.35;45.63;68.65;;
72690;Laerm;61053;52.166;4.506;2022-08-19T13:38:27;64.37;52.51;79.33;;
72690;Laerm;61053;52.166;4.506;2022-08-19T13:40:54;60.77;46.87;80.96;;
72690;Laerm;61053;52.166;4.506;2022-08-19T13:43:25;60.85;46.71;76.10;;
72690;Laerm;61053;52.166;4.506;2022-08-19T13:45:54;63.26;47.86;80.33;;
72690;Laerm;61053;52.166;4.506;2022-08-19T13:48:25;61.30;46.52;75.39;;
72690;Laerm;61053;52.166;4.506;2022-08-19T13:50:52;61.06;46.35;71.04;;
72690;Laerm;61053;52.166;4.506;2022-08-19T13:53:18;59.33;45.14;73.70;;
72690;Laerm;61053;52.166;4.506;2022-08-19T13:55:44;65.58;49.06;82.08;;
72690;Laerm;61053;52.166;4.506;2022-08-19T13:58:11;61.51;47.42;72.38;;
72690;Laerm;61053;52.166;4.506;2022-08-19T14:00:45;60.82;45.48;72.51;;
72690;Laerm;61053;52.166;4.506;2022-08-19T14:03:11;62.20;45.66;76.12;;
72690;Laerm;61053;52.166;4.506;2022-08-19T14:05:37;61.86;46.15;75.60;;
72690;Laerm;61053;52.166;4.506;2022-08-19T14:08:03;61.33;51.64;72.48;;
72690;Laerm;61053;52.166;4.506;2022-08-19T14:10:29;58.56;45.30;69.81;;
72690;Laerm;61053;52.166;4.506;2022-08-19T14:13:00;62.02;46.33;72.22;;
72690;Laerm;61053;52.166;4.506;2022-08-19T14:15:28;61.89;49.62;75.87;;
72690;Laerm;61053;52.166;4.506;2022-08-19T14:17:54;58.65;43.68;72.96;;
72690;Laerm;61053;52.166;4.506;2022-08-19T14:20:20;61.59;45.60;73.71;;
72690;Laerm;61053;52.166;4.506;2022-08-19T14:22:47;61.73;42.35;74.12;;
72690;Laerm;61053;52.166;4.506;2022-08-19T14:25:23;61.64;47.61;73.22;;